sensor_id;sensor_type;location;lat;lon;timestamp;P1;durP1;ratioP1;P2;durP2;ratioP2
20705;SDS011;10514;49.468;11.044;2023-01-15T00:00:50;2.37;;;1.30;;
20705;SDS011;10514;49.468;11.044;2023-01-15T00:03:17;0.93;;;0.60;;
20705;SDS011;10514;49.468;11.044;2023-01-15T00:05:43;3.30;;;0.80;;
20705;SDS011;10514;49.468;11.044;2023-01-15T00:08:09;1.00;;;0.70;;
20705;SDS011;10514;49.468;11.044;2023-01-15T00:10:35;1.87;;;0.77;;
20705;SDS011;10514;49.468;11.044;2023-01-15T00:13:00;2.13;;;1.23;;
20705;SDS011;10514;49.468;11.044;2023-01-15T00:15:26;2.50;;;1.13;;
20705;SDS011;10514;49.468;11.044;2023-01-15T00:17:52;0.97;;;0.70;;
20705;SDS011;10514;49.468;11.044;2023-01-15T00:20:18;0.93;;;0.80;;
20705;SDS011;10514;49.468;11.044;2023-01-15T00:22:45;2.53;;;1.17;;
20705;SDS011;10514;49.468;11.044;2023-01-15T00:25:11;3.30;;;0.77;;
20705;SDS011;10514;49.468;11.044;2023-01-15T00:27:55;0.73;;;0.63;;
20705;SDS011;10514;49.468;11.044;2023-01-15T00:30:21;2.63;;;0.90;;
20705;SDS011;10514;49.468;11.044;2023-01-15T00:32:48;2.27;;;1.10;;
20705;SDS011;10514;49.468;11.044;2023-01-15T00:35:16;1.43;;;0.90;;
20705;SDS011;10514;49.468;11.044;2023-01-15T00:37:42;2.57;;;0.90;;
20705;SDS011;10514;49.468;11.044;2023-01-15T00:40:08;1.67;;;0.90;;
20705;SDS011;10514;49.468;11.044;2023-01-15T00:42:35;1.17;;;0.73;;
20705;SDS011;10514;49.468;11.044;2023-01-15T00:45:00;1.77;;;0.90;;
20705;SDS011;10514;49.468;11.044;2023-01-15T00:47:33;3.00;;;0.70;;
20705;SDS011;10514;49.468;11.044;2023-01-15T00:49:59;1.27;;;0.60;;
20705;SDS011;10514;49.468;11.044;2023-01-15T00:52:25;1.03;;;0.70;;
20705;SDS011;10514;49.468;11.044;2023-01-15T00:54:51;1.07;;;0.63;;
20705;SDS011;10514;49.468;11.044;2023-01-15T00:57:18;0.93;;;0.70;;
20705;SDS011;10514;49.468;11.044;2023-01-15T00:59:44;1.90;;;0.70;;
20705;SDS011;10514;49.468;11.044;2023-01-15T01:02:10;1.77;;;0.60;;
20705;SDS011;10514;49.468;11.044;2023-01-15T01:04:36;0.97;;;0.70;;
20705;SDS011;10514;49.468;11.044;2023-01-15T01:07:02;1.92;;;0.75;;
20705;SDS011;10514;49.468;11.044;2023-01-15T01:09:28;2.67;;;0.80;;
20705;SDS011;10514;49.468;11.044;2023-01-15T01:11:54;0.87;;;0.50;;
20705;SDS011;10514;49.468;11.044;2023-01-15T01:14:20;1.13;;;0.63;;
20705;SDS011;10514;49.468;11.044;2023-01-15T01:16:46;0.73;;;0.47;;
20705;SDS011;10514;49.468;11.044;2023-01-15T01:19:13;1.60;;;0.70;;
20705;SDS011;10514;49.468;11.044;2023-01-15T01:21:40;0.60;;;0.40;;
20705;SDS011;10514;49.468;11.044;2023-01-15T01:24:06;0.87;;;0.60;;
20705;SDS011;10514;49.468;11.044;2023-01-15T01:26:32;1.07;;;0.57;;
20705;SDS011;10514;49.468;11.044;2023-01-15T01:28:58;0.60;;;0.40;;
20705;SDS011;10514;49.468;11.044;2023-01-15T01:31:24;0.90;;;0.60;;
20705;SDS011;10514;49.468;11.044;2023-01-15T01:33:51;0.93;;;0.53;;
20705;SDS011;10514;49.468;11.044;2023-01-15T01:36:18;0.60;;;0.50;;
20705;SDS011;10514;49.468;11.044;2023-01-15T01:38:46;1.80;;;0.50;;
20705;SDS011;10514;49.468;11.044;2023-01-15T01:41:13;1.03;;;0.70;;
20705;SDS011;10514;49.468;11.044;2023-01-15T01:43:50;0.50;;;0.50;;
20705;SDS011;10514;49.468;11.044;2023-01-15T01:46:18;0.90;;;0.53;;
20705;SDS011;10514;49.468;11.044;2023-01-15T01:48:43;3.03;;;0.60;;
20705;SDS011;10514;49.468;11.044;2023-01-15T01:51:10;0.50;;;0.50;;
20705;SDS011;10514;49.468;11.044;2023-01-15T01:53:36;1.40;;;0.57;;
20705;SDS011;10514;49.468;11.044;2023-01-15T01:56:03;1.40;;;0.73;;
20705;SDS011;10514;49.468;11.044;2023-01-15T01:58:29;2.13;;;0.50;;
20705;SDS011;10514;49.468;11.044;2023-01-15T02:00:56;1.30;;;0.43;;
20705;SDS011;10514;49.468;11.044;2023-01-15T02:03:26;0.60;;;0.50;;
20705;SDS011;10514;49.468;11.044;2023-01-15T02:05:55;0.60;;;0.50;;
20705;SDS011;10514;49.468;11.044;2023-01-15T02:08:24;0.95;;;0.68;;
20705;SDS011;10514;49.468;11.044;2023-01-15T02:10:52;0.43;;;0.40;;
20705;SDS011;10514;49.468;11.044;2023-01-15T02:13:26;0.70;;;0.50;;
20705;SDS011;10514;49.468;11.044;2023-01-15T02:16:04;2.50;;;0.40;;
20705;SDS011;10514;49.468;11.044;2023-01-15T02:21:41;0.45;;;0.45;;
20705;SDS011;10514;49.468;11.044;2023-01-15T02:24:09;0.95;;;0.43;;
20705;SDS011;10514;49.468;11.044;2023-01-15T02:27:04;0.50;;;0.50;;
20705;SDS011;10514;49.468;11.044;2023-01-15T02:29:33;1.13;;;0.50;;
20705;SDS011;10514;49.468;11.044;2023-01-15T02:32:01;1.27;;;0.50;;
20705;SDS011;10514;49.468;11.044;2023-01-15T02:34:33;0.50;;;0.50;;
20705;SDS011;10514;49.468;11.044;2023-01-15T02:37:06;0.90;;;0.57;;
20705;SDS011;10514;49.468;11.044;2023-01-15T02:39:34;0.95;;;0.50;;
20705;SDS011;10514;49.468;11.044;2023-01-15T02:42:02;1.13;;;0.50;;
20705;SDS011;10514;49.468;11.044;2023-01-15T02:44:31;0.65;;;0.50;;
20705;SDS011;10514;49.468;11.044;2023-01-15T02:46:58;0.60;;;0.52;;
20705;SDS011;10514;49.468;11.044;2023-01-15T02:49:25;1.40;;;0.47;;
20705;SDS011;10514;49.468;11.044;2023-01-15T02:51:56;0.75;;;0.50;;
20705;SDS011;10514;49.468;11.044;2023-01-15T02:54:23;0.90;;;0.60;;
20705;SDS011;10514;49.468;11.044;2023-01-15T02:56:53;0.60;;;0.38;;
20705;SDS011;10514;49.468;11.044;2023-01-15T02:59:23;0.33;;;0.30;;
20705;SDS011;10514;49.468;11.044;2023-01-15T03:01:52;0.60;;;0.50;;
20705;SDS011;10514;49.468;11.044;2023-01-15T03:04:34;0.50;;;0.50;;
20705;SDS011;10514;49.468;11.044;2023-01-15T03:07:20;0.57;;;0.50;;
20705;SDS011;10514;49.468;11.044;2023-01-15T03:09:50;0.43;;;0.43;;
20705;SDS011;10514;49.468;11.044;2023-01-15T03:12:24;0.43;;;0.40;;
20705;SDS011;10514;49.468;11.044;2023-01-15T03:15:02;0.73;;;0.50;;
20705;SDS011;10514;49.468;11.044;2023-01-15T03:17:35;0.77;;;0.40;;
20705;SDS011;10514;49.468;11.044;2023-01-15T03:20:16;0.60;;;0.45;;
20705;SDS011;10514;49.468;11.044;2023-01-15T03:22:48;1.10;;;0.43;;
20705;SDS011;10514;49.468;11.044;2023-01-15T03:25:18;2.75;;;0.52;;
20705;SDS011;10514;49.468;11.044;2023-01-15T03:27:47;2.45;;;0.45;;
20705;SDS011;10514;49.468;11.044;2023-01-15T03:30:15;0.57;;;0.50;;
20705;SDS011;10514;49.468;11.044;2023-01-15T03:32:42;0.60;;;0.40;;
20705;SDS011;10514;49.468;11.044;2023-01-15T03:35:38;0.52;;;0.40;;
20705;SDS011;10514;49.468;11.044;2023-01-15T03:37:54;0.40;;;0.40;;
20705;SDS011;10514;49.468;11.044;2023-01-15T03:40:20;0.40;;;0.37;;
20705;SDS011;10514;49.468;11.044;2023-01-15T03:42:53;2.05;;;0.40;;
20705;SDS011;10514;49.468;11.044;2023-01-15T03:45:43;0.85;;;0.40;;
20705;SDS011;10514;49.468;11.044;2023-01-15T03:48:13;3.05;;;0.40;;
20705;SDS011;10514;49.468;11.044;2023-01-15T03:50:56;0.32;;;0.32;;
20705;SDS011;10514;49.468;11.044;2023-01-15T03:53:27;0.95;;;0.40;;
20705;SDS011;10514;49.468;11.044;2023-01-15T03:56:12;0.50;;;0.50;;
20705;SDS011;10514;49.468;11.044;2023-01-15T03:58:43;0.30;;;0.30;;
20705;SDS011;10514;49.468;11.044;2023-01-15T04:01:11;0.63;;;0.45;;
20705;SDS011;10514;49.468;11.044;2023-01-15T04:03:38;0.50;;;0.30;;
20705;SDS011;10514;49.468;11.044;2023-01-15T04:06:04;0.63;;;0.50;;
20705;SDS011;10514;49.468;11.044;2023-01-15T04:08:32;0.30;;;0.30;;
20705;SDS011;10514;49.468;11.044;2023-01-15T04:10:59;0.38;;;0.30;;
20705;SDS011;10514;49.468;11.044;2023-01-15T04:13:26;0.35;;;0.30;;
20705;SDS011;10514;49.468;11.044;2023-01-15T04:15:52;0.40;;;0.40;;
20705;SDS011;10514;49.468;11.044;2023-01-15T04:18:18;0.80;;;0.40;;
20705;SDS011;10514;49.468;11.044;2023-01-15T04:20:44;0.63;;;0.50;;
20705;SDS011;10514;49.468;11.044;2023-01-15T04:23:11;0.47;;;0.47;;
20705;SDS011;10514;49.468;11.044;2023-01-15T04:25:37;0.85;;;0.40;;
20705;SDS011;10514;49.468;11.044;2023-01-15T04:28:03;0.82;;;0.40;;
20705;SDS011;10514;49.468;11.044;2023-01-15T04:30:29;0.47;;;0.47;;
20705;SDS011;10514;49.468;11.044;2023-01-15T04:32:55;0.53;;;0.50;;
20705;SDS011;10514;49.468;11.044;2023-01-15T04:35:22;0.50;;;0.40;;
20705;SDS011;10514;49.468;11.044;2023-01-15T04:37:48;0.47;;;0.43;;
20705;SDS011;10514;49.468;11.044;2023-01-15T04:40:14;2.20;;;0.40;;
20705;SDS011;10514;49.468;11.044;2023-01-15T04:42:58;0.50;;;0.40;;
20705;SDS011;10514;49.468;11.044;2023-01-15T04:45:43;0.35;;;0.35;;
20705;SDS011;10514;49.468;11.044;2023-01-15T04:48:09;0.53;;;0.50;;
20705;SDS011;10514;49.468;11.044;2023-01-15T04:50:36;0.47;;;0.47;;
20705;SDS011;10514;49.468;11.044;2023-01-15T04:53:02;1.92;;;0.30;;
20705;SDS011;10514;49.468;11.044;2023-01-15T04:55:28;0.68;;;0.68;;
20705;SDS011;10514;49.468;11.044;2023-01-15T04:57:54;0.22;;;0.22;;
20705;SDS011;10514;49.468;11.044;2023-01-15T05:00:20;1.05;;;0.47;;
20705;SDS011;10514;49.468;11.044;2023-01-15T05:02:47;0.30;;;0.30;;
20705;SDS011;10514;49.468;11.044;2023-01-15T05:05:12;0.97;;;0.60;;
20705;SDS011;10514;49.468;11.044;2023-01-15T05:07:38;0.65;;;0.50;;
20705;SDS011;10514;49.468;11.044;2023-01-15T05:10:04;0.70;;;0.50;;
20705;SDS011;10514;49.468;11.044;2023-01-15T05:12:30;0.50;;;0.50;;
20705;SDS011;10514;49.468;11.044;2023-01-15T05:14:56;0.43;;;0.40;;
20705;SDS011;10514;49.468;11.044;2023-01-15T05:17:22;0.60;;;0.40;;
20705;SDS011;10514;49.468;11.044;2023-01-15T05:19:48;0.93;;;0.40;;
20705;SDS011;10514;49.468;11.044;2023-01-15T05:22:14;0.35;;;0.35;;
20705;SDS011;10514;49.468;11.044;2023-01-15T05:24:39;1.47;;;0.40;;
20705;SDS011;10514;49.468;11.044;2023-01-15T05:27:05;0.70;;;0.43;;
20705;SDS011;10514;49.468;11.044;2023-01-15T05:29:31;0.52;;;0.40;;
20705;SDS011;10514;49.468;11.044;2023-01-15T05:31:57;0.55;;;0.40;;
20705;SDS011;10514;49.468;11.044;2023-01-15T05:34:23;0.73;;;0.40;;
20705;SDS011;10514;49.468;11.044;2023-01-15T05:36:49;0.70;;;0.30;;
20705;SDS011;10514;49.468;11.044;2023-01-15T05:39:15;1.27;;;0.50;;
20705;SDS011;10514;49.468;11.044;2023-01-15T05:41:41;0.60;;;0.40;;
20705;SDS011;10514;49.468;11.044;2023-01-15T05:44:14;0.57;;;0.40;;
20705;SDS011;10514;49.468;11.044;2023-01-15T05:46:41;1.27;;;0.40;;
20705;SDS011;10514;49.468;11.044;2023-01-15T05:49:09;0.40;;;0.40;;
20705;SDS011;10514;49.468;11.044;2023-01-15T05:51:36;0.40;;;0.30;;
20705;SDS011;10514;49.468;11.044;2023-01-15T05:54:03;0.77;;;0.40;;
20705;SDS011;10514;49.468;11.044;2023-01-15T05:56:29;3.72;;;0.40;;
20705;SDS011;10514;49.468;11.044;2023-01-15T05:58:55;0.47;;;0.40;;
20705;SDS011;10514;49.468;11.044;2023-01-15T06:01:21;0.70;;;0.35;;
20705;SDS011;10514;49.468;11.044;2023-01-15T06:03:48;0.35;;;0.30;;
20705;SDS011;10514;49.468;11.044;2023-01-15T06:06:15;0.50;;;0.50;;
20705;SDS011;10514;49.468;11.044;2023-01-15T06:08:41;0.30;;;0.30;;
20705;SDS011;10514;49.468;11.044;2023-01-15T06:11:07;1.77;;;0.50;;
20705;SDS011;10514;49.468;11.044;2023-01-15T06:13:35;1.25;;;0.35;;
20705;SDS011;10514;49.468;11.044;2023-01-15T06:16:00;0.50;;;0.45;;
20705;SDS011;10514;49.468;11.044;2023-01-15T06:18:26;0.47;;;0.40;;
20705;SDS011;10514;49.468;11.044;2023-01-15T06:20:52;0.60;;;0.50;;
20705;SDS011;10514;49.468;11.044;2023-01-15T06:23:18;0.40;;;0.40;;
20705;SDS011;10514;49.468;11.044;2023-01-15T06:25:44;0.77;;;0.55;;
20705;SDS011;10514;49.468;11.044;2023-01-15T06:28:11;1.80;;;0.40;;
20705;SDS011;10514;49.468;11.044;2023-01-15T06:30:38;0.40;;;0.40;;
20705;SDS011;10514;49.468;11.044;2023-01-15T06:33:04;3.70;;;0.40;;
20705;SDS011;10514;49.468;11.044;2023-01-15T06:35:31;0.50;;;0.30;;
20705;SDS011;10514;49.468;11.044;2023-01-15T06:37:57;0.55;;;0.40;;
20705;SDS011;10514;49.468;11.044;2023-01-15T06:40:23;0.40;;;0.32;;
20705;SDS011;10514;49.468;11.044;2023-01-15T06:42:51;0.30;;;0.30;;
20705;SDS011;10514;49.468;11.044;2023-01-15T06:45:37;1.50;;;0.40;;
20705;SDS011;10514;49.468;11.044;2023-01-15T06:48:24;0.30;;;0.30;;
20705;SDS011;10514;49.468;11.044;2023-01-15T06:50:50;0.50;;;0.40;;
20705;SDS011;10514;49.468;11.044;2023-01-15T06:53:17;0.40;;;0.40;;
20705;SDS011;10514;49.468;11.044;2023-01-15T06:55:43;0.60;;;0.50;;
20705;SDS011;10514;49.468;11.044;2023-01-15T06:58:09;0.80;;;0.40;;
20705;SDS011;10514;49.468;11.044;2023-01-15T07:00:35;0.40;;;0.40;;
20705;SDS011;10514;49.468;11.044;2023-01-15T07:03:02;0.65;;;0.50;;
20705;SDS011;10514;49.468;11.044;2023-01-15T07:05:28;0.30;;;0.30;;
20705;SDS011;10514;49.468;11.044;2023-01-15T07:07:54;0.30;;;0.30;;
20705;SDS011;10514;49.468;11.044;2023-01-15T07:10:21;0.50;;;0.40;;
20705;SDS011;10514;49.468;11.044;2023-01-15T07:12:47;0.30;;;0.30;;
20705;SDS011;10514;49.468;11.044;2023-01-15T07:15:13;0.27;;;0.27;;
20705;SDS011;10514;49.468;11.044;2023-01-15T07:17:39;0.30;;;0.30;;
20705;SDS011;10514;49.468;11.044;2023-01-15T07:20:05;1.40;;;0.50;;
20705;SDS011;10514;49.468;11.044;2023-01-15T07:22:31;0.40;;;0.40;;
20705;SDS011;10514;49.468;11.044;2023-01-15T07:24:57;0.53;;;0.40;;
20705;SDS011;10514;49.468;11.044;2023-01-15T07:27:23;0.40;;;0.30;;
20705;SDS011;10514;49.468;11.044;2023-01-15T07:29:48;0.30;;;0.30;;
20705;SDS011;10514;49.468;11.044;2023-01-15T07:32:16;0.30;;;0.30;;
20705;SDS011;10514;49.468;11.044;2023-01-15T07:34:42;0.30;;;0.30;;
20705;SDS011;10514;49.468;11.044;2023-01-15T07:37:08;0.30;;;0.30;;
20705;SDS011;10514;49.468;11.044;2023-01-15T07:39:34;0.50;;;0.50;;
20705;SDS011;10514;49.468;11.044;2023-01-15T07:41:59;1.93;;;0.50;;
20705;SDS011;10514;49.468;11.044;2023-01-15T07:44:44;2.00;;;0.47;;
20705;SDS011;10514;49.468;11.044;2023-01-15T07:47:29;1.63;;;1.30;;
20705;SDS011;10514;49.468;11.044;2023-01-15T07:50:16;0.83;;;0.83;;
20705;SDS011;10514;49.468;11.044;2023-01-15T07:52:43;0.67;;;0.60;;
20705;SDS011;10514;49.468;11.044;2023-01-15T07:55:09;0.50;;;0.50;;
20705;SDS011;10514;49.468;11.044;2023-01-15T07:57:36;0.40;;;0.40;;
20705;SDS011;10514;49.468;11.044;2023-01-15T08:00:03;0.40;;;0.40;;
20705;SDS011;10514;49.468;11.044;2023-01-15T08:02:30;1.27;;;0.50;;
20705;SDS011;10514;49.468;11.044;2023-01-15T08:04:56;0.60;;;0.60;;
20705;SDS011;10514;49.468;11.044;2023-01-15T08:07:21;0.90;;;0.70;;
20705;SDS011;10514;49.468;11.044;2023-01-15T08:09:48;1.13;;;0.50;;
20705;SDS011;10514;49.468;11.044;2023-01-15T08:12:14;0.70;;;0.50;;
20705;SDS011;10514;49.468;11.044;2023-01-15T08:14:59;0.40;;;0.40;;
20705;SDS011;10514;49.468;11.044;2023-01-15T08:17:37;0.43;;;0.43;;
20705;SDS011;10514;49.468;11.044;2023-01-15T08:20:04;0.50;;;0.50;;
20705;SDS011;10514;49.468;11.044;2023-01-15T08:22:30;0.40;;;0.40;;
20705;SDS011;10514;49.468;11.044;2023-01-15T08:24:56;0.60;;;0.40;;
20705;SDS011;10514;49.468;11.044;2023-01-15T08:27:22;0.43;;;0.43;;
20705;SDS011;10514;49.468;11.044;2023-01-15T08:29:48;0.40;;;0.40;;
20705;SDS011;10514;49.468;11.044;2023-01-15T08:32:14;1.90;;;0.40;;
20705;SDS011;10514;49.468;11.044;2023-01-15T08:34:40;0.40;;;0.40;;
20705;SDS011;10514;49.468;11.044;2023-01-15T08:37:06;0.80;;;0.70;;
20705;SDS011;10514;49.468;11.044;2023-01-15T08:39:32;1.90;;;0.90;;
20705;SDS011;10514;49.468;11.044;2023-01-15T08:41:59;0.50;;;0.50;;
20705;SDS011;10514;49.468;11.044;2023-01-15T08:44:25;1.30;;;0.80;;
20705;SDS011;10514;49.468;11.044;2023-01-15T08:46:51;1.90;;;0.90;;
20705;SDS011;10514;49.468;11.044;2023-01-15T08:49:18;4.47;;;0.80;;
20705;SDS011;10514;49.468;11.044;2023-01-15T08:51:44;2.17;;;0.70;;
20705;SDS011;10514;49.468;11.044;2023-01-15T08:54:13;3.77;;;0.53;;
20705;SDS011;10514;49.468;11.044;2023-01-15T08:56:39;0.90;;;0.60;;
20705;SDS011;10514;49.468;11.044;2023-01-15T08:59:05;0.60;;;0.60;;
20705;SDS011;10514;49.468;11.044;2023-01-15T09:01:32;1.07;;;0.50;;
20705;SDS011;10514;49.468;11.044;2023-01-15T09:03:58;0.67;;;0.60;;
20705;SDS011;10514;49.468;11.044;2023-01-15T09:06:24;2.50;;;0.70;;
20705;SDS011;10514;49.468;11.044;2023-01-15T09:08:50;0.70;;;0.60;;
20705;SDS011;10514;49.468;11.044;2023-01-15T09:11:16;0.47;;;0.40;;
20705;SDS011;10514;49.468;11.044;2023-01-15T09:13:42;0.93;;;0.60;;
20705;SDS011;10514;49.468;11.044;2023-01-15T09:16:08;1.13;;;0.70;;
20705;SDS011;10514;49.468;11.044;2023-01-15T09:18:39;1.07;;;0.53;;
20705;SDS011;10514;49.468;11.044;2023-01-15T09:21:05;1.90;;;0.60;;
20705;SDS011;10514;49.468;11.044;2023-01-15T09:23:31;0.97;;;0.67;;
20705;SDS011;10514;49.468;11.044;2023-01-15T09:25:58;0.50;;;0.50;;
20705;SDS011;10514;49.468;11.044;2023-01-15T09:28:24;1.57;;;0.80;;
20705;SDS011;10514;49.468;11.044;2023-01-15T09:30:50;1.87;;;0.80;;
20705;SDS011;10514;49.468;11.044;2023-01-15T09:33:16;1.50;;;0.70;;
20705;SDS011;10514;49.468;11.044;2023-01-15T09:35:42;2.40;;;1.20;;
20705;SDS011;10514;49.468;11.044;2023-01-15T09:38:12;1.10;;;0.60;;
20705;SDS011;10514;49.468;11.044;2023-01-15T09:43:23;1.27;;;0.80;;
20705;SDS011;10514;49.468;11.044;2023-01-15T09:45:54;0.60;;;0.60;;
20705;SDS011;10514;49.468;11.044;2023-01-15T09:48:32;1.00;;;0.80;;
20705;SDS011;10514;49.468;11.044;2023-01-15T09:53:56;1.53;;;0.80;;
20705;SDS011;10514;49.468;11.044;2023-01-15T09:56:48;0.70;;;0.57;;
20705;SDS011;10514;49.468;11.044;2023-01-15T09:59:36;1.43;;;0.87;;
20705;SDS011;10514;49.468;11.044;2023-01-15T10:02:03;0.60;;;0.60;;
20705;SDS011;10514;49.468;11.044;2023-01-15T10:04:37;0.70;;;0.70;;
20705;SDS011;10514;49.468;11.044;2023-01-15T10:07:22;1.43;;;0.80;;
20705;SDS011;10514;49.468;11.044;2023-01-15T10:09:54;0.80;;;0.60;;
20705;SDS011;10514;49.468;11.044;2023-01-15T10:12:24;0.67;;;0.50;;
20705;SDS011;10514;49.468;11.044;2023-01-15T10:17:37;1.33;;;0.67;;
20705;SDS011;10514;49.468;11.044;2023-01-15T10:20:05;0.60;;;0.47;;
20705;SDS011;10514;49.468;11.044;2023-01-15T10:25:33;2.83;;;1.10;;
20705;SDS011;10514;49.468;11.044;2023-01-15T10:28:04;2.20;;;1.20;;
20705;SDS011;10514;49.468;11.044;2023-01-15T10:30:42;1.10;;;0.60;;
20705;SDS011;10514;49.468;11.044;2023-01-15T10:35:57;1.90;;;0.90;;
20705;SDS011;10514;49.468;11.044;2023-01-15T10:38:32;1.40;;;1.00;;
20705;SDS011;10514;49.468;11.044;2023-01-15T10:41:03;1.50;;;1.10;;
20705;SDS011;10514;49.468;11.044;2023-01-15T10:46:16;1.00;;;0.80;;
20705;SDS011;10514;49.468;11.044;2023-01-15T10:51:12;1.23;;;0.87;;
20705;SDS011;10514;49.468;11.044;2023-01-15T10:53:41;1.30;;;0.73;;
20705;SDS011;10514;49.468;11.044;2023-01-15T10:58:36;1.30;;;0.90;;
20705;SDS011;10514;49.468;11.044;2023-01-15T11:01:04;2.90;;;0.80;;
20705;SDS011;10514;49.468;11.044;2023-01-15T11:03:37;1.13;;;0.80;;
20705;SDS011;10514;49.468;11.044;2023-01-15T11:06:04;1.13;;;0.80;;
20705;SDS011;10514;49.468;11.044;2023-01-15T11:08:35;0.80;;;0.70;;
20705;SDS011;10514;49.468;11.044;2023-01-15T11:12:04;1.00;;;0.70;;
20705;SDS011;10514;49.468;11.044;2023-01-15T11:14:38;0.70;;;0.60;;
20705;SDS011;10514;49.468;11.044;2023-01-15T11:17:24;0.67;;;0.60;;
20705;SDS011;10514;49.468;11.044;2023-01-15T11:22:51;1.03;;;0.80;;
20705;SDS011;10514;49.468;11.044;2023-01-15T11:25:24;2.73;;;1.43;;
20705;SDS011;10514;49.468;11.044;2023-01-15T11:27:50;1.90;;;1.03;;
20705;SDS011;10514;49.468;11.044;2023-01-15T11:30:27;1.37;;;1.03;;
20705;SDS011;10514;49.468;11.044;2023-01-15T11:32:58;4.73;;;2.03;;
20705;SDS011;10514;49.468;11.044;2023-01-15T11:35:24;3.70;;;1.83;;
20705;SDS011;10514;49.468;11.044;2023-01-15T11:38:03;2.50;;;1.30;;
20705;SDS011;10514;49.468;11.044;2023-01-15T11:40:31;2.83;;;1.20;;
20705;SDS011;10514;49.468;11.044;2023-01-15T11:42:57;2.50;;;1.53;;
20705;SDS011;10514;49.468;11.044;2023-01-15T11:45:46;2.03;;;1.50;;
20705;SDS011;10514;49.468;11.044;2023-01-15T11:48:45;2.30;;;1.07;;
20705;SDS011;10514;49.468;11.044;2023-01-15T11:51:32;1.50;;;1.17;;
20705;SDS011;10514;49.468;11.044;2023-01-15T11:54:02;1.40;;;1.00;;
20705;SDS011;10514;49.468;11.044;2023-01-15T11:56:29;3.10;;;1.87;;
20705;SDS011;10514;49.468;11.044;2023-01-15T11:58:57;2.07;;;1.13;;
20705;SDS011;10514;49.468;11.044;2023-01-15T12:01:28;2.13;;;0.70;;
20705;SDS011;10514;49.468;11.044;2023-01-15T12:03:55;0.73;;;0.70;;
20705;SDS011;10514;49.468;11.044;2023-01-15T12:06:22;0.60;;;0.50;;
20705;SDS011;10514;49.468;11.044;2023-01-15T12:19:07;1.60;;;0.93;;
20705;SDS011;10514;49.468;11.044;2023-01-15T12:24:22;2.47;;;0.90;;
20705;SDS011;10514;49.468;11.044;2023-01-15T12:29:41;2.30;;;1.30;;
20705;SDS011;10514;49.468;11.044;2023-01-15T12:32:12;1.83;;;0.77;;
20705;SDS011;10514;49.468;11.044;2023-01-15T12:34:44;8.77;;;2.80;;
20705;SDS011;10514;49.468;11.044;2023-01-15T12:37:12;2.30;;;1.20;;
20705;SDS011;10514;49.468;11.044;2023-01-15T12:39:45;1.13;;;0.80;;
20705;SDS011;10514;49.468;11.044;2023-01-15T12:42:13;0.70;;;0.70;;
20705;SDS011;10514;49.468;11.044;2023-01-15T12:45:05;1.30;;;0.60;;
20705;SDS011;10514;49.468;11.044;2023-01-15T12:47:43;3.57;;;0.80;;
20705;SDS011;10514;49.468;11.044;2023-01-15T12:53:00;1.03;;;0.90;;
20705;SDS011;10514;49.468;11.044;2023-01-15T12:55:29;1.20;;;0.87;;
20705;SDS011;10514;49.468;11.044;2023-01-15T12:57:58;1.43;;;0.80;;
20705;SDS011;10514;49.468;11.044;2023-01-15T13:00:26;0.90;;;0.50;;
20705;SDS011;10514;49.468;11.044;2023-01-15T13:05:29;0.50;;;0.50;;
20705;SDS011;10514;49.468;11.044;2023-01-15T13:08:08;2.80;;;1.40;;
20705;SDS011;10514;49.468;11.044;2023-01-15T13:10:34;1.00;;;0.90;;
20705;SDS011;10514;49.468;11.044;2023-01-15T13:13:16;1.50;;;1.10;;
20705;SDS011;10514;49.468;11.044;2023-01-15T13:18:30;2.87;;;1.97;;
20705;SDS011;10514;49.468;11.044;2023-01-15T13:21:00;1.20;;;1.03;;
20705;SDS011;10514;49.468;11.044;2023-01-15T13:23:54;4.40;;;1.70;;
20705;SDS011;10514;49.468;11.044;2023-01-15T13:29:28;2.80;;;0.80;;
20705;SDS011;10514;49.468;11.044;2023-01-15T13:32:17;3.47;;;1.50;;
20705;SDS011;10514;49.468;11.044;2023-01-15T13:34:52;0.83;;;0.77;;
20705;SDS011;10514;49.468;11.044;2023-01-15T13:39:52;0.87;;;0.70;;
20705;SDS011;10514;49.468;11.044;2023-01-15T13:42:24;0.97;;;0.50;;
20705;SDS011;10514;49.468;11.044;2023-01-15T13:45:00;1.07;;;0.80;;
20705;SDS011;10514;49.468;11.044;2023-01-15T13:47:28;0.60;;;0.60;;
20705;SDS011;10514;49.468;11.044;2023-01-15T13:49:56;1.00;;;0.90;;
20705;SDS011;10514;49.468;11.044;2023-01-15T13:52:27;1.70;;;0.80;;
20705;SDS011;10514;49.468;11.044;2023-01-15T13:54:53;1.03;;;0.93;;
20705;SDS011;10514;49.468;11.044;2023-01-15T13:57:22;1.80;;;1.70;;
20705;SDS011;10514;49.468;11.044;2023-01-15T13:59:55;3.40;;;1.50;;
20705;SDS011;10514;49.468;11.044;2023-01-15T14:02:25;4.37;;;2.30;;
20705;SDS011;10514;49.468;11.044;2023-01-15T14:04:52;4.70;;;1.70;;
20705;SDS011;10514;49.468;11.044;2023-01-15T14:07:18;2.10;;;1.30;;
20705;SDS011;10514;49.468;11.044;2023-01-15T14:09:47;2.80;;;1.17;;
20705;SDS011;10514;49.468;11.044;2023-01-15T14:12:24;1.30;;;0.90;;
20705;SDS011;10514;49.468;11.044;2023-01-15T14:15:17;1.20;;;0.83;;
20705;SDS011;10514;49.468;11.044;2023-01-15T14:25:50;3.17;;;0.80;;
20705;SDS011;10514;49.468;11.044;2023-01-15T14:36:23;1.17;;;0.80;;
20705;SDS011;10514;49.468;11.044;2023-01-15T14:38:51;0.83;;;0.70;;
20705;SDS011;10514;49.468;11.044;2023-01-15T14:41:28;0.87;;;0.60;;
20705;SDS011;10514;49.468;11.044;2023-01-15T14:43:55;1.90;;;0.60;;
20705;SDS011;10514;49.468;11.044;2023-01-15T14:46:27;3.53;;;0.90;;
20705;SDS011;10514;49.468;11.044;2023-01-15T14:48:54;4.07;;;0.90;;
20705;SDS011;10514;49.468;11.044;2023-01-15T14:51:31;0.80;;;0.50;;
20705;SDS011;10514;49.468;11.044;2023-01-15T14:54:01;1.00;;;0.70;;
20705;SDS011;10514;49.468;11.044;2023-01-15T14:56:29;2.60;;;0.73;;
20705;SDS011;10514;49.468;11.044;2023-01-15T14:59:07;2.57;;;0.67;;
20705;SDS011;10514;49.468;11.044;2023-01-15T15:01:48;1.43;;;0.67;;
20705;SDS011;10514;49.468;11.044;2023-01-15T15:07:13;1.17;;;0.70;;
20705;SDS011;10514;49.468;11.044;2023-01-15T15:09:41;3.50;;;0.80;;
20705;SDS011;10514;49.468;11.044;2023-01-15T15:14:43;1.17;;;0.70;;
20705;SDS011;10514;49.468;11.044;2023-01-15T15:17:15;1.17;;;0.60;;
20705;SDS011;10514;49.468;11.044;2023-01-15T15:19:44;6.30;;;0.90;;
20705;SDS011;10514;49.468;11.044;2023-01-15T15:22:15;2.80;;;1.07;;
20705;SDS011;10514;49.468;11.044;2023-01-15T15:24:46;1.93;;;0.80;;
20705;SDS011;10514;49.468;11.044;2023-01-15T15:27:13;1.93;;;0.93;;
20705;SDS011;10514;49.468;11.044;2023-01-15T15:29:41;2.10;;;1.00;;
20705;SDS011;10514;49.468;11.044;2023-01-15T15:32:09;2.60;;;1.10;;
20705;SDS011;10514;49.468;11.044;2023-01-15T15:34:39;1.63;;;0.90;;
20705;SDS011;10514;49.468;11.044;2023-01-15T15:37:17;0.73;;;0.63;;
20705;SDS011;10514;49.468;11.044;2023-01-15T15:40:05;0.77;;;0.60;;
20705;SDS011;10514;49.468;11.044;2023-01-15T15:42:40;2.07;;;0.93;;
20705;SDS011;10514;49.468;11.044;2023-01-15T15:45:26;3.17;;;0.90;;
20705;SDS011;10514;49.468;11.044;2023-01-15T15:48:19;3.70;;;1.20;;
20705;SDS011;10514;49.468;11.044;2023-01-15T15:51:04;2.07;;;0.80;;
20705;SDS011;10514;49.468;11.044;2023-01-15T15:53:31;1.47;;;0.90;;
20705;SDS011;10514;49.468;11.044;2023-01-15T15:55:57;1.57;;;0.70;;
20705;SDS011;10514;49.468;11.044;2023-01-15T15:58:29;2.77;;;0.90;;
20705;SDS011;10514;49.468;11.044;2023-01-15T16:01:00;5.50;;;0.83;;
20705;SDS011;10514;49.468;11.044;2023-01-15T16:03:27;3.00;;;0.73;;
20705;SDS011;10514;49.468;11.044;2023-01-15T16:06:03;5.73;;;0.80;;
20705;SDS011;10514;49.468;11.044;2023-01-15T16:08:31;3.30;;;1.10;;